Time;durP1;ratioP1;P1;durP2;ratioP2;P2;SDS_P1;SDS_P2;PMS_P1;PMS_P2;Temp;Humidity;BMP_temperature;BMP_pressure;BME280_temperature;BME280_humidity;BME280_pressure;Samples;Min_cycle;Max_cycle;Signal;HPM_P1;HPM_P2
2024/03/04 00:00:42;;;;;;;11.40;4.30;;;6.70;99.90;;;;;;6178982;23;20679;-88
2024/03/04 00:03:08;;;;;;;12.17;6.17;;;7.10;99.90;;;;;;6154116;23;20209;-89
2024/03/04 00:05:37;;;;;;;17.07;6.63;;;6.90;99.90;;;;;;6155432;23;20174;-87
2024/03/04 00:08:03;;;;;;;8.03;5.53;;;6.90;99.90;;;;;;6154605;23;20205;-88
2024/03/04 00:10:29;;;;;;;7.60;4.00;;;7.10;99.90;;;;;;6154214;23;20277;-87
2024/03/04 00:12:55;;;;;;;10.70;4.53;;;7.10;99.90;;;;;;6153784;23;20591;-87
2024/03/04 00:15:25;;;;;;;9.97;4.60;;;6.90;99.90;;;;;;6177810;23;20229;-87
2024/03/04 00:17:51;;;;;;;14.03;8.73;;;7.10;99.90;;;;;;6154954;23;20958;-87
2024/03/04 00:20:21;;;;;;;10.67;6.37;;;6.70;99.90;;;;;;6179286;23;20241;-87
2024/03/04 00:22:47;;;;;;;12.10;6.83;;;6.80;99.90;;;;;;6179233;23;20253;-87
2024/03/04 00:25:16;;;;;;;5.60;5.07;;;6.70;99.90;;;;;;6154021;23;20303;-87
2024/03/04 00:27:51;;;;;;;13.20;7.70;;;6.50;99.90;;;;;;6178686;23;20202;-89
2024/03/04 00:30:17;;;;;;;9.03;6.10;;;6.80;99.90;;;;;;6154209;23;20246;-87
2024/03/04 00:32:44;;;;;;;15.63;6.43;;;6.70;99.90;;;;;;6154035;23;20177;-88
2024/03/04 00:35:10;;;;;;;9.80;7.10;;;6.70;99.90;;;;;;6154989;23;20528;-87
2024/03/04 00:37:37;;;;;;;8.80;5.77;;;6.70;99.90;;;;;;6178338;23;20210;-88
2024/03/04 00:40:07;;;;;;;8.37;4.07;;;6.80;99.90;;;;;;6155400;23;20206;-90
2024/03/04 00:42:33;;;;;;;8.20;7.00;;;6.50;99.90;;;;;;6155661;23;20202;-89
2024/03/04 00:45:00;;;;;;;7.60;5.50;;;6.70;99.90;;;;;;6156087;23;20167;-87
2024/03/04 00:47:26;;;;;;;7.07;5.53;;;6.60;99.90;;;;;;6181339;23;20497;-87
2024/03/04 00:49:52;;;;;;;13.77;6.67;;;6.40;99.90;;;;;;6155869;23;20209;-87
2024/03/04 00:52:18;;;;;;;11.50;6.63;;;6.70;99.90;;;;;;6155287;23;20274;-87
2024/03/04 00:54:44;;;;;;;7.87;5.30;;;6.60;99.90;;;;;;6155826;23;20202;-88
2024/03/04 00:57:10;;;;;;;11.67;7.83;;;6.80;99.90;;;;;;6155456;23;20226;-87
2024/03/04 00:59:37;;;;;;;12.70;4.60;;;6.50;99.90;;;;;;6180830;23;20189;-87
2024/03/04 01:02:07;;;;;;;15.50;5.13;;;7.00;99.90;;;;;;6154818;23;20226;-87
2024/03/04 01:04:34;;;;;;;6.20;5.60;;;6.70;99.90;;;;;;6155464;23;20233;-87
2024/03/04 01:07:00;;;;;;;5.53;5.03;;;6.60;99.90;;;;;;6156066;23;20715;-86
2024/03/04 01:09:26;;;;;;;16.13;7.33;;;6.10;99.90;;;;;;6180300;23;20252;-87
2024/03/04 01:11:54;;;;;;;7.13;6.33;;;6.10;99.90;;;;;;6155581;23;20253;-87
2024/03/04 01:14:20;;;;;;;4.27;3.80;;;5.80;99.90;;;;;;6180979;23;20245;-88
2024/03/04 01:16:49;;;;;;;10.67;6.30;;;6.20;99.90;;;;;;6155699;23;21262;-87
2024/03/04 01:19:16;;;;;;;7.10;6.40;;;6.30;99.90;;;;;;6156070;23;20265;-87
2024/03/04 01:21:42;;;;;;;6.70;5.80;;;6.70;99.90;;;;;;6155860;23;20683;-87
2024/03/04 01:24:09;;;;;;;8.50;4.63;;;6.60;99.90;;;;;;6140819;23;20261;-87
2024/03/04 01:26:36;;;;;;;8.73;5.30;;;6.70;99.90;;;;;;6114186;23;20501;-87
2024/03/04 01:29:03;;;;;;;7.40;4.97;;;6.50;99.90;;;;;;6155648;23;20218;-87
2024/03/04 01:31:29;;;;;;;10.07;7.97;;;6.40;99.90;;;;;;6179876;23;20206;-88
2024/03/04 01:33:55;;;;;;;9.30;7.77;;;6.50;99.90;;;;;;6156172;23;20252;-87
2024/03/04 01:36:21;;;;;;;9.57;5.93;;;6.40;99.90;;;;;;6155743;23;20229;-88
2024/03/04 01:38:47;;;;;;;11.43;7.77;;;6.60;99.90;;;;;;6155768;23;20174;-87
2024/03/04 01:41:13;;;;;;;12.37;5.80;;;6.70;99.90;;;;;;6155959;23;20198;-87
2024/03/04 01:43:39;;;;;;;12.47;8.17;;;6.60;99.90;;;;;;6155422;23;20199;-87
2024/03/04 01:46:05;;;;;;;6.30;5.27;;;6.80;99.90;;;;;;6155660;23;20198;-87
2024/03/04 01:48:32;;;;;;;8.57;7.67;;;6.70;99.90;;;;;;6180183;23;20585;-87
2024/03/04 01:50:58;;;;;;;11.53;7.80;;;7.00;99.90;;;;;;6155228;23;20175;-88
2024/03/04 01:53:26;;;;;;;18.47;9.97;;;7.10;99.90;;;;;;6156415;23;20170;-86
2024/03/04 01:56:00;;;;;;;11.17;8.43;;;6.90;99.90;;;;;;6154874;23;20225;-88
2024/03/04 01:58:26;;;;;;;6.90;6.37;;;7.00;99.90;;;;;;6180004;23;20207;-87
2024/03/04 02:00:53;;;;;;;7.53;6.10;;;7.00;99.90;;;;;;6179680;23;20210;-87
2024/03/04 02:03:20;;;;;;;9.17;6.53;;;7.40;99.90;;;;;;6179391;23;20211;-87
2024/03/04 02:05:47;;;;;;;6.50;5.87;;;7.30;99.90;;;;;;6155289;23;20174;-90
2024/03/04 02:08:17;;;;;;;13.10;6.97;;;7.30;99.90;;;;;;6155948;23;20175;-87
2024/03/04 02:10:44;;;;;;;6.37;5.77;;;7.00;99.90;;;;;;6155005;23;20230;-88
2024/03/04 02:13:09;;;;;;;8.67;5.57;;;7.20;99.90;;;;;;6155357;23;20542;-88
2024/03/04 02:15:37;;;;;;;7.23;5.10;;;6.80;99.90;;;;;;6154624;23;20210;-88
2024/03/04 02:18:07;;;;;;;8.07;7.37;;;7.10;99.90;;;;;;6179890;23;20190;-88
2024/03/04 02:20:39;;;;;;;10.57;7.27;;;6.80;99.90;;;;;;6156162;23;20687;-87
2024/03/04 02:23:07;;;;;;;8.33;7.53;;;7.10;99.90;;;;;;6180050;23;20230;-89
2024/03/04 02:25:34;;;;;;;12.43;6.63;;;7.10;99.90;;;;;;6155174;23;20230;-90
2024/03/04 02:28:02;;;;;;;13.33;7.57;;;6.80;99.90;;;;;;6155234;23;20293;-87
2024/03/04 02:30:31;;;;;;;10.23;7.20;;;7.00;99.90;;;;;;6155251;23;20194;-87
2024/03/04 02:32:58;;;;;;;14.67;7.50;;;6.70;99.90;;;;;;6154862;23;20175;-87
2024/03/04 02:35:29;;;;;;;12.27;7.93;;;7.00;99.90;;;;;;6155735;23;20171;-87
2024/03/04 02:37:56;;;;;;;9.33;5.30;;;6.80;99.90;;;;;;6154973;23;20581;-89
2024/03/04 02:40:21;;;;;;;10.83;7.77;;;6.90;99.90;;;;;;6179288;23;20704;-89
2024/03/04 02:42:50;;;;;;;9.27;6.20;;;6.90;99.90;;;;;;6179900;23;20207;-87
2024/03/04 02:45:16;;;;;;;7.53;6.50;;;6.70;99.90;;;;;;6179771;23;20209;-88
2024/03/04 02:47:42;;;;;;;17.20;7.67;;;6.70;99.90;;;;;;6154558;23;20172;-89
2024/03/04 02:50:08;;;;;;;7.87;6.93;;;6.80;99.90;;;;;;6156021;23;20171;-88
2024/03/04 02:52:34;;;;;;;7.07;6.37;;;7.20;99.90;;;;;;6154617;23;20269;-87
2024/03/04 02:55:00;;;;;;;12.90;7.17;;;7.10;99.90;;;;;;6155060;23;20198;-87
2024/03/04 02:57:27;;;;;;;30.13;7.30;;;7.20;99.90;;;;;;6154376;23;20652;-87
2024/03/04 02:59:53;;;;;;;9.83;4.77;;;7.40;99.90;;;;;;6178841;23;20256;-88
2024/03/04 03:02:18;;;;;;;3.63;2.77;;;7.40;99.90;;;;;;6154491;23;20178;-90
2024/03/04 03:04:44;;;;;;;8.13;5.50;;;7.40;99.90;;;;;;6154310;23;20206;-88
2024/03/04 03:07:10;;;;;;;8.97;4.70;;;7.70;99.90;;;;;;6154730;23;20202;-89
2024/03/04 03:09:36;;;;;;;4.57;4.00;;;7.80;99.90;;;;;;6154415;23;20268;-87
2024/03/04 03:12:02;;;;;;;6.90;4.13;;;7.50;99.90;;;;;;6154419;23;20199;-87
2024/03/04 03:14:28;;;;;;;7.77;4.67;;;7.60;99.90;;;;;;6179075;23;20233;-87
2024/03/04 03:16:53;;;;;;;26.17;6.03;;;7.80;99.90;;;;;;6153960;23;20203;-87
2024/03/04 03:19:23;;;;;;;8.63;5.97;;;7.60;99.90;;;;;;6154382;23;20209;-88
2024/03/04 03:21:51;;;;;;;14.50;7.60;;;7.70;99.90;;;;;;6178673;23;20210;-89
2024/03/04 03:24:20;;;;;;;13.80;7.10;;;7.70;99.90;;;;;;6155091;23;20742;-88
2024/03/04 03:26:47;;;;;;;7.57;5.70;;;8.20;99.90;;;;;;6155424;23;20175;-89
2024/03/04 03:29:17;;;;;;;19.80;7.43;;;7.90;99.90;;;;;;6180231;23;20178;-88
2024/03/04 03:31:43;;;;;;;11.23;5.63;;;8.20;99.90;;;;;;6179218;23;20289;-88
2024/03/04 03:34:09;;;;;;;15.33;9.43;;;8.10;99.90;;;;;;6153962;23;20237;-88
2024/03/04 03:36:42;;;;;;;17.77;6.70;;;8.20;99.90;;;;;;6178972;23;20202;-87
2024/03/04 03:39:09;;;;;;;12.07;6.87;;;8.00;99.90;;;;;;6178888;23;20683;-88
2024/03/04 03:41:41;;;;;;;11.40;6.53;;;8.30;99.90;;;;;;6154781;23;20198;-90
2024/03/04 03:44:07;;;;;;;8.90;7.30;;;8.20;99.90;;;;;;6130478;23;20241;-89
2024/03/04 03:46:34;;;;;;;13.57;6.77;;;8.30;99.90;;;;;;6154047;23;20206;-88
2024/03/04 03:49:00;;;;;;;12.63;7.17;;;8.20;99.90;;;;;;6178808;23;20206;-87
2024/03/04 03:51:28;;;;;;;11.10;6.30;;;8.40;99.90;;;;;;6154122;23;20529;-89
2024/03/04 03:53:54;;;;;;;5.70;3.50;;;8.60;99.90;;;;;;6179510;23;20174;-88
2024/03/04 03:56:20;;;;;;;13.53;6.37;;;8.50;99.90;;;;;;6154573;23;20261;-87
2024/03/04 03:58:49;;;;;;;20.23;8.50;;;8.40;99.90;;;;;;6119828;23;20210;-89
2024/03/04 04:01:15;;;;;;;17.80;6.97;;;8.30;99.90;;;;;;6178928;23;20206;-87
2024/03/04 04:03:41;;;;;;;16.43;6.93;;;8.30;99.90;;;;;;6154030;23;20209;-87
2024/03/04 04:06:09;;;;;;;16.83;7.27;;;8.40;99.90;;;;;;6154113;23;20194;-88
2024/03/04 04:08:35;;;;;;;15.83;5.83;;;8.40;99.90;;;;;;6154554;23;20174;-89
2024/03/04 04:11:01;;;;;;;8.73;5.63;;;8.20;99.90;;;;;;6153831;23;20210;-87
2024/03/04 04:13:28;;;;;;;5.40;4.93;;;8.30;99.90;;;;;;6155900;23;20280;-87
2024/03/04 04:15:54;;;;;;;8.80;6.93;;;8.30;99.90;;;;;;6156438;23;20236;-88
2024/03/04 04:18:20;;;;;;;18.97;6.00;;;8.20;99.90;;;;;;6181261;23;20198;-87
2024/03/04 04:20:46;;;;;;;6.60;4.30;;;8.60;99.90;;;;;;6156292;23;20269;-88
2024/03/04 04:23:12;;;;;;;21.43;6.87;;;8.70;99.90;;;;;;6157520;23;20170;-88
2024/03/04 04:25:37;;;;;;;9.03;6.87;;;8.50;99.90;;;;;;6155488;23;20344;-87
2024/03/04 04:28:04;;;;;;;12.80;6.57;;;8.50;99.90;;;;;;6156657;23;20202;-89
2024/03/04 04:30:29;;;;;;;27.17;8.33;;;8.40;99.90;;;;;;6156614;23;20202;-87
2024/03/04 04:32:55;;;;;;;17.83;7.73;;;8.80;99.90;;;;;;6156613;23;20555;-87
2024/03/04 04:35:21;;;;;;;8.23;6.03;;;8.30;99.90;;;;;;6156969;23;20206;-88
2024/03/04 04:37:47;;;;;;;13.93;5.53;;;8.30;99.90;;;;;;6156056;23;20209;-88
2024/03/04 04:40:19;;;;;;;5.13;4.67;;;8.30;99.90;;;;;;6155697;23;20234;-88
2024/03/04 04:42:45;;;;;;;19.17;5.83;;;8.50;99.90;;;;;;6155954;23;20205;-87
2024/03/04 04:45:11;;;;;;;35.63;5.97;;;8.40;99.90;;;;;;6155875;23;20532;-87
2024/03/04 04:47:36;;;;;;;14.67;6.77;;;8.40;99.90;;;;;;6156242;23;20639;-87
2024/03/04 04:50:03;;;;;;;7.27;4.93;;;8.70;99.90;;;;;;6156037;23;20202;-88
2024/03/04 04:52:29;;;;;;;14.37;7.03;;;8.30;99.90;;;;;;6155780;23;20203;-87
2024/03/04 04:54:55;;;;;;;12.30;6.03;;;8.30;99.90;;;;;;6181063;23;20206;-88
2024/03/04 04:57:23;;;;;;;7.03;6.33;;;8.20;99.90;;;;;;6155523;23;20277;-88
2024/03/04 04:59:49;;;;;;;14.67;7.00;;;8.40;99.90;;;;;;6156768;23;20611;-88
2024/03/04 05:02:15;;;;;;;11.07;6.90;;;8.60;99.90;;;;;;6181512;23;20171;-88
2024/03/04 05:04:44;;;;;;;14.63;6.10;;;8.20;99.90;;;;;;6155311;23;20203;-90
2024/03/04 05:07:10;;;;;;;14.03;6.00;;;8.60;99.90;;;;;;6180327;23;20202;-90
2024/03/04 05:09:35;;;;;;;11.80;7.07;;;8.60;99.90;;;;;;6155731;23;20202;-87
2024/03/04 05:12:01;;;;;;;26.57;7.33;;;8.40;99.90;;;;;;6155704;23;20238;-89
2024/03/04 05:14:27;;;;;;;13.33;4.93;;;8.20;99.90;;;;;;6156599;23;20596;-88
2024/03/04 05:16:53;;;;;;;17.10;6.03;;;8.20;99.90;;;;;;6155378;23;20221;-88
2024/03/04 05:19:18;;;;;;;18.03;6.33;;;8.50;99.90;;;;;;6180419;23;20273;-88
2024/03/04 05:21:44;;;;;;;18.17;5.37;;;8.60;99.90;;;;;;6155038;23;20214;-88
2024/03/04 05:24:10;;;;;;;10.63;6.20;;;8.30;99.90;;;;;;6154519;23;20210;-88
2024/03/04 05:26:36;;;;;;;4.97;4.73;;;8.50;99.90;;;;;;6155796;23;20170;-87
2024/03/04 05:29:02;;;;;;;13.43;6.90;;;8.20;99.90;;;;;;6155239;23;20253;-88
2024/03/04 05:31:29;;;;;;;11.53;7.27;;;8.10;99.90;;;;;;6155115;23;20210;-88
2024/03/04 05:33:54;;;;;;;5.83;5.30;;;8.50;99.90;;;;;;6179897;23;20206;-87
2024/03/04 05:36:21;;;;;;;7.17;4.90;;;8.40;99.90;;;;;;6155210;23;20209;-87
2024/03/04 05:38:47;;;;;;;12.40;6.47;;;8.50;99.90;;;;;;6155728;23;20178;-87
2024/03/04 05:41:12;;;;;;;12.57;4.47;;;8.30;99.90;;;;;;6156130;23;20202;-87
2024/03/04 05:43:38;;;;;;;9.13;5.90;;;8.50;99.90;;;;;;6155033;23;20202;-87
2024/03/04 05:46:04;;;;;;;7.23;5.40;;;8.50;99.90;;;;;;6154868;23;20225;-87
2024/03/04 05:48:32;;;;;;;10.67;7.07;;;8.40;99.90;;;;;;6179611;23;20531;-88
2024/03/04 05:50:57;;;;;;;13.27;4.53;;;8.30;99.90;;;;;;6155639;23;20179;-88
2024/03/04 05:53:25;;;;;;;5.50;3.53;;;8.10;99.90;;;;;;6156033;23;20234;-87
2024/03/04 05:55:51;;;;;;;10.53;4.57;;;8.50;99.90;;;;;;6154817;23;20206;-87
2024/03/04 05:58:17;;;;;;;7.30;3.90;;;8.50;99.90;;;;;;6179597;23;20305;-89
2024/03/04 06:00:43;;;;;;;6.73;4.37;;;8.10;99.90;;;;;;6154816;23;20210;-88
2024/03/04 06:03:09;;;;;;;8.50;6.23;;;8.50;99.90;;;;;;6155066;23;20201;-87
2024/03/04 06:05:35;;;;;;;14.73;7.47;;;8.40;99.90;;;;;;6155843;23;20171;-87
2024/03/04 06:08:02;;;;;;;6.43;5.23;;;8.30;99.90;;;;;;6154961;23;20253;-87
2024/03/04 06:10:28;;;;;;;36.83;7.80;;;8.00;99.90;;;;;;6155271;23;20659;-87
2024/03/04 06:12:57;;;;;;;9.97;4.53;;;8.10;99.90;;;;;;6155712;23;20248;-88
2024/03/04 06:15:23;;;;;;;9.30;5.43;;;8.30;99.90;;;;;;6154885;23;20198;-89
2024/03/04 06:17:48;;;;;;;6.93;3.73;;;7.90;99.90;;;;;;6154810;23;20182;-88
2024/03/04 06:20:14;;;;;;;13.57;6.93;;;8.30;99.90;;;;;;6155229;23;20253;-87
2024/03/04 06:22:40;;;;;;;10.97;4.47;;;8.30;99.90;;;;;;6154643;23;20199;-87
2024/03/04 06:25:06;;;;;;;18.53;6.10;;;8.10;99.90;;;;;;6179443;23;20199;-90
2024/03/04 06:27:35;;;;;;;9.37;7.00;;;8.30;99.90;;;;;;6154713;23;20230;-89
2024/03/04 06:30:02;;;;;;;6.93;5.07;;;8.20;99.90;;;;;;6155731;23;20202;-88
2024/03/04 06:32:28;;;;;;;6.23;3.47;;;8.00;99.90;;;;;;6155564;23;20174;-87
2024/03/04 06:34:54;;;;;;;5.33;3.27;;;8.10;99.90;;;;;;6154520;23;20205;-87
2024/03/04 06:37:20;;;;;;;9.23;4.97;;;8.00;99.90;;;;;;6155523;23;20202;-87
2024/03/04 06:39:46;;;;;;;6.10;3.80;;;8.30;99.90;;;;;;6155323;23;20297;-88
2024/03/04 06:42:11;;;;;;;9.00;4.47;;;8.40;99.90;;;;;;6154307;23;20787;-87
2024/03/04 06:44:37;;;;;;;9.67;4.97;;;8.10;99.90;;;;;;6154443;23;20199;-87
2024/03/04 06:47:03;;;;;;;12.57;6.07;;;8.20;99.90;;;;;;6153759;23;20282;-86
2024/03/04 06:49:29;;;;;;;6.90;4.63;;;8.10;99.90;;;;;;6177890;23;20210;-86
2024/03/04 06:51:55;;;;;;;12.77;6.03;;;8.20;99.90;;;;;;6153771;23;20225;-86
2024/03/04 06:54:21;;;;;;;7.00;4.83;;;8.10;99.90;;;;;;6142380;23;20202;-86
2024/03/04 06:56:46;;;;;;;11.33;5.37;;;8.10;99.90;;;;;;6178088;23;20203;-85
2024/03/04 06:59:12;;;;;;;12.30;6.63;;;8.00;99.90;;;;;;6154851;23;20256;-87
2024/03/04 07:01:38;;;;;;;20.97;8.73;;;8.50;99.90;;;;;;6178318;23;20226;-87
2024/03/04 07:04:04;;;;;;;16.30;6.73;;;8.50;99.90;;;;;;6154093;23;20736;-88
2024/03/04 07:06:29;;;;;;;18.53;6.97;;;8.50;99.90;;;;;;6153687;23;20228;-87
2024/03/04 07:08:57;;;;;;;11.23;6.53;;;8.30;99.90;;;;;;6179004;23;20654;-87
2024/03/04 07:11:23;;;;;;;14.13;5.97;;;8.20;99.90;;;;;;6154488;23;20171;-87
2024/03/04 07:13:49;;;;;;;9.90;3.93;;;8.50;99.90;;;;;;6178212;23;20544;-85
2024/03/04 07:16:15;;;;;;;5.97;5.40;;;8.30;99.90;;;;;;6153194;23;20213;-85
2024/03/04 07:18:44;;;;;;;5.33;4.87;;;8.10;99.90;;;;;;6178009;23;20667;-86
2024/03/04 07:21:14;;;;;;;25.77;5.47;;;8.20;99.90;;;;;;6153117;23;20207;-85
2024/03/04 07:23:41;;;;;;;5.87;4.90;;;8.20;99.90;;;;;;6153723;23;20175;-85
2024/03/04 07:26:09;;;;;;;10.40;4.33;;;8.50;99.90;;;;;;6178819;23;20186;-86
2024/03/04 07:28:40;;;;;;;14.37;5.10;;;8.20;99.90;;;;;;6178088;23;20682;-85
2024/03/04 07:31:15;;;;;;;6.30;2.90;;;8.50;99.90;;;;;;6178378;23;20244;-85
2024/03/04 07:33:42;;;;;;;14.17;5.03;;;8.50;99.90;;;;;;6155112;23;20202;-85
2024/03/04 07:36:13;;;;;;;10.13;4.53;;;8.50;99.90;;;;;;6153189;23;20218;-87
2024/03/04 07:38:39;;;;;;;4.07;3.67;;;8.20;99.90;;;;;;6154609;23;20185;-86
2024/03/04 07:41:08;;;;;;;10.67;4.63;;;8.60;99.90;;;;;;6154334;23;20199;-85
2024/03/04 07:43:35;;;;;;;5.60;4.17;;;8.50;99.90;;;;;;6153158;23;20248;-87
2024/03/04 07:46:01;;;;;;;18.17;3.53;;;8.60;99.90;;;;;;6153226;23;20748;-86
2024/03/04 07:48:26;;;;;;;7.20;4.23;;;8.20;99.90;;;;;;6178174;23;20205;-85
2024/03/04 07:50:52;;;;;;;6.17;3.80;;;8.50;99.90;;;;;;6152827;23;20174;-88
2024/03/04 07:53:24;;;;;;;6.00;3.27;;;8.60;99.90;;;;;;6153935;23;20178;-87
2024/03/04 07:55:50;;;;;;;15.37;5.23;;;8.60;99.90;;;;;;6153574;23;20230;-87
2024/03/04 07:58:16;;;;;;;10.10;4.47;;;8.50;99.90;;;;;;6153374;23;20202;-89
2024/03/04 08:00:42;;;;;;;8.70;4.07;;;8.70;99.90;;;;;;6153358;23;20202;-86
2024/03/04 08:03:11;;;;;;;4.40;3.10;;;8.40;99.90;;;;;;6153057;23;20225;-86
2024/03/04 08:05:37;;;;;;;8.23;4.60;;;8.30;99.90;;;;;;6153981;23;20273;-90
2024/03/04 08:08:05;;;;;;;5.97;3.50;;;8.40;99.90;;;;;;6153615;23;20202;-86
2024/03/04 08:10:31;;;;;;;1.50;1.20;;;8.60;99.90;;;;;;6178214;23;20213;-88
2024/03/04 08:12:57;;;;;;;7.97;4.53;;;8.40;99.90;;;;;;6177958;23;20206;-86
2024/03/04 08:15:24;;;;;;;2.53;1.83;;;8.70;99.90;;;;;;6152945;23;20198;-86
2024/03/04 08:17:50;;;;;;;11.23;2.63;;;8.50;99.90;;;;;;6153503;23;20546;-87
2024/03/04 08:20:15;;;;;;;7.70;4.10;;;8.40;99.90;;;;;;6153974;23;20194;-87
2024/03/04 08:22:41;;;;;;;1.60;1.47;;;8.50;99.90;;;;;;6153501;23;20213;-86
2024/03/04 08:25:07;;;;;;;3.83;1.87;;;8.70;99.90;;;;;;6152876;23;20671;-87
2024/03/04 08:27:33;;;;;;;7.07;4.43;;;8.50;99.90;;;;;;6153740;23;20202;-87
2024/03/04 08:29:59;;;;;;;2.73;1.90;;;8.50;99.90;;;;;;6153724;23;20167;-85
2024/03/04 08:32:25;;;;;;;4.70;4.23;;;8.70;99.90;;;;;;6178938;23;20194;-86
2024/03/04 08:34:51;;;;;;;4.30;3.87;;;8.40;99.90;;;;;;6153208;23;20203;-87
2024/03/04 08:37:16;;;;;;;10.37;4.23;;;8.60;99.90;;;;;;6153230;23;20199;-86
2024/03/04 08:39:42;;;;;;;3.40;2.90;;;8.90;99.90;;;;;;6177732;23;20195;-87
2024/03/04 08:42:08;;;;;;;5.67;3.07;;;8.60;99.90;;;;;;6153743;23;20217;-87
2024/03/04 08:44:34;;;;;;;7.13;3.17;;;8.70;99.90;;;;;;6153217;23;20249;-86
2024/03/04 08:47:02;;;;;;;4.83;3.30;;;8.70;99.90;;;;;;6127603;23;20215;-86
2024/03/04 08:49:31;;;;;;;11.23;5.33;;;9.10;99.90;;;;;;6177608;23;20659;-86
2024/03/04 08:51:56;;;;;;;11.43;2.73;;;8.80;99.90;;;;;;6153470;23;20236;-87
2024/03/04 08:54:22;;;;;;;0.90;0.90;;;8.90;99.90;;;;;;6152647;23;20283;-86
2024/03/04 08:56:48;;;;;;;4.03;3.70;;;8.90;99.90;;;;;;6152615;23;20233;-86
2024/03/04 08:59:14;;;;;;;3.37;3.13;;;8.70;99.90;;;;;;6153766;23;20190;-89
2024/03/04 09:01:44;;;;;;;5.50;3.40;;;8.90;99.90;;;;;;6154801;23;20557;-89
2024/03/04 09:04:10;;;;;;;6.63;2.57;;;8.90;99.90;;;;;;6144156;23;20260;-87
2024/03/04 09:06:39;;;;;;;4.57;2.50;;;8.80;99.90;;;;;;6154985;23;20571;-86
2024/03/04 09:09:05;;;;;;;5.90;3.90;;;8.90;99.90;;;;;;6139973;23;20282;-87
2024/03/04 09:11:32;;;;;;;3.00;2.73;;;8.90;99.90;;;;;;6112577;23;20528;-87
2024/03/04 09:13:58;;;;;;;8.73;4.53;;;9.10;99.90;;;;;;6154512;23;20207;-87
2024/03/04 09:16:27;;;;;;;21.90;3.70;;;8.90;99.90;;;;;;6179492;23;20209;-86
2024/03/04 09:18:53;;;;;;;6.60;5.93;;;9.00;99.90;;;;;;6154273;23;20207;-86
2024/03/04 09:21:19;;;;;;;3.30;2.63;;;9.10;99.90;;;;;;6179554;23;20206;-87
2024/03/04 09:23:47;;;;;;;2.33;2.23;;;9.10;99.90;;;;;;6154920;23;20493;-88
2024/03/04 09:26:13;;;;;;;9.67;3.73;;;9.20;99.90;;;;;;6156216;23;20175;-87
2024/03/04 09:28:47;;;;;;;7.00;3.40;;;8.90;99.90;;;;;;6153811;23;20651;-87
2024/03/04 09:31:13;;;;;;;9.77;3.67;;;9.00;99.90;;;;;;6156140;23;20194;-89
2024/03/04 09:33:38;;;;;;;5.40;3.47;;;9.00;99.90;;;;;;6155086;23;20722;-87
2024/03/04 09:36:07;;;;;;;3.20;2.90;;;8.90;99.90;;;;;;6154563;23;20277;-86
2024/03/04 09:38:33;;;;;;;4.63;3.93;;;9.10;99.90;;;;;;6180473;23;20174;-87
2024/03/04 09:40:59;;;;;;;3.37;2.37;;;9.10;99.90;;;;;;6180784;23;20261;-86
2024/03/04 09:43:31;;;;;;;4.60;2.37;;;8.90;99.90;;;;;;6154389;23;20229;-87
2024/03/04 09:45:58;;;;;;;7.57;3.53;;;8.90;99.90;;;;;;6154983;23;20593;-89
2024/03/04 09:48:26;;;;;;;13.00;3.47;;;9.20;99.90;;;;;;6179245;23;20198;-86
2024/03/04 09:50:53;;;;;;;7.57;3.43;;;9.30;99.90;;;;;;6178489;23;20270;-86
2024/03/04 09:53:20;;;;;;;4.17;2.23;;;9.40;99.90;;;;;;6179452;23;20186;-86
2024/03/04 09:55:46;;;;;;;3.23;2.20;;;9.30;99.90;;;;;;6178215;23;20296;-87
2024/03/04 09:58:12;;;;;;;8.67;2.47;;;9.10;99.90;;;;;;6153800;23;20762;-89
2024/03/04 10:00:40;;;;;;;3.70;1.63;;;9.20;99.90;;;;;;6153825;23;20292;-86
2024/03/04 10:03:09;;;;;;;5.97;2.83;;;9.20;99.90;;;;;;6154576;23;20191;-87
2024/03/04 10:05:35;;;;;;;1.83;1.70;;;9.20;99.90;;;;;;6154277;23;20174;-87
2024/03/04 10:08:02;;;;;;;3.93;2.77;;;9.10;99.90;;;;;;6154551;23;20218;-88
2024/03/04 10:10:28;;;;;;;3.67;2.87;;;9.40;99.90;;;;;;6154023;23;20206;-87
2024/03/04 10:12:54;;;;;;;15.33;5.17;;;9.40;99.90;;;;;;6153989;23;20672;-86
2024/03/04 10:15:22;;;;;;;3.93;3.57;;;9.40;99.90;;;;;;6154102;23;20737;-88
2024/03/04 10:17:50;;;;;;;0.67;0.67;;;9.40;99.90;;;;;;6153984;23;20348;-89
2024/03/04 10:20:16;;;;;;;4.33;2.47;;;9.50;99.90;;;;;;6154488;23;20233;-87
2024/03/04 10:22:42;;;;;;;7.00;3.90;;;9.40;99.90;;;;;;6153820;23;20361;-87
2024/03/04 10:25:10;;;;;;;2.20;2.00;;;9.30;99.90;;;;;;6153292;23;20294;-86
2024/03/04 10:27:47;;;;;;;5.87;1.80;;;9.40;99.90;;;;;;6178041;23;20202;-86
2024/03/04 10:30:13;;;;;;;8.43;1.17;;;9.30;99.90;;;;;;6155606;23;20676;-86
2024/03/04 10:32:49;;;;;;;3.77;1.23;;;9.10;99.90;;;;;;6179871;23;20249;-87
2024/03/04 10:35:16;;;;;;;4.67;2.07;;;9.20;99.90;;;;;;6154199;23;20268;-86
2024/03/04 10:37:43;;;;;;;6.50;3.13;;;9.30;99.90;;;;;;6154280;23;20203;-88
2024/03/04 10:40:09;;;;;;;2.00;1.90;;;9.40;99.90;;;;;;6178661;23;20195;-87
2024/03/04 10:42:36;;;;;;;2.70;2.50;;;9.40;99.90;;;;;;6178576;23;20674;-86
2024/03/04 10:45:04;;;;;;;6.23;4.20;;;9.20;99.90;;;;;;6153696;23;20198;-86
2024/03/04 10:47:35;;;;;;;7.30;3.83;;;9.40;99.90;;;;;;6155303;23;20470;-86
2024/03/04 10:50:02;;;;;;;6.93;3.20;;;9.50;99.90;;;;;;6178893;23;20202;-86
2024/03/04 10:52:28;;;;;;;6.57;3.83;;;9.50;99.90;;;;;;6178511;23;20207;-87
2024/03/04 10:54:54;;;;;;;4.53;3.07;;;9.30;99.90;;;;;;6153610;23;20218;-87
2024/03/04 10:57:30;;;;;;;4.53;3.77;;;9.40;99.90;;;;;;6153600;23;20211;-86
2024/03/04 11:00:10;;;;;;;21.13;3.63;;;9.30;99.90;;;;;;6178816;23;20209;-87
2024/03/04 11:02:57;;;;;;;4.10;2.27;;;9.50;99.90;;;;;;6179793;23;20167;-86
2024/03/04 11:05:23;;;;;;;2.60;2.33;;;9.40;99.90;;;;;;6178913;23;20170;-87
2024/03/04 11:07:52;;;;;;;7.27;2.57;;;9.30;99.90;;;;;;6177726;23;20233;-86
2024/03/04 11:10:26;;;;;;;2.10;1.97;;;9.40;99.90;;;;;;6178349;23;20673;-89
2024/03/04 11:12:59;;;;;;;6.67;3.13;;;9.20;99.90;;;;;;6177822;23;20206;-88
2024/03/04 11:15:30;;;;;;;3.70;3.20;;;9.30;99.90;;;;;;6178325;23;20205;-86
2024/03/04 11:18:01;;;;;;;2.13;2.03;;;9.30;99.90;;;;;;6178264;23;20155;-87
2024/03/04 11:20:29;;;;;;;2.33;2.13;;;9.30;99.90;;;;;;6179280;23;20632;-90
2024/03/04 11:22:57;;;;;;;6.33;2.30;;;9.30;99.90;;;;;;6153551;23;20218;-86
2024/03/04 11:25:23;;;;;;;3.23;2.93;;;9.20;99.90;;;;;;6178362;23;20198;-86
2024/03/04 11:27:49;;;;;;;1.50;1.40;;;9.30;99.90;;;;;;6153429;23;20202;-90
2024/03/04 11:30:19;;;;;;;5.93;1.10;;;9.20;99.90;;;;;;6154432;23;20202;-86
2024/03/04 11:32:44;;;;;;;1.13;1.10;;;9.20;99.90;;;;;;6177845;23;20189;-87
2024/03/04 11:35:26;;;;;;;5.67;3.57;;;9.20;99.90;;;;;;6154402;23;20189;-86
2024/03/04 11:38:03;;;;;;;1.53;1.07;;;9.10;99.90;;;;;;6153218;23;20284;-86
2024/03/04 11:40:32;;;;;;;4.73;2.17;;;9.20;99.90;;;;;;6178617;23;20206;-86
2024/03/04 11:42:58;;;;;;;18.90;2.47;;;9.20;99.90;;;;;;6152475;23;20744;-86
2024/03/04 11:45:36;;;;;;;5.93;3.03;;;9.30;99.90;;;;;;6178359;23;20202;-89
2024/03/04 11:48:24;;;;;;;3.27;2.47;;;9.20;99.90;;;;;;6177784;23;20211;-86
2024/03/04 11:50:56;;;;;;;2.50;1.83;;;9.20;99.90;;;;;;6177571;23;20628;-88
2024/03/04 11:53:26;;;;;;;1.70;1.60;;;9.20;99.90;;;;;;6153575;23;20163;-87
2024/03/04 11:55:53;;;;;;;0.87;0.87;;;9.20;99.90;;;;;;6152648;23;20214;-86
2024/03/04 11:58:21;;;;;;;6.07;2.33;;;9.30;99.90;;;;;;6153478;23;20273;-86
2024/03/04 12:00:51;;;;;;;3.00;2.70;;;9.30;99.90;;;;;;6177654;23;20217;-87
2024/03/04 12:03:19;;;;;;;2.83;2.33;;;9.30;99.90;;;;;;6177896;23;20229;-89
2024/03/04 12:05:46;;;;;;;3.13;2.83;;;9.50;99.90;;;;;;6178255;23;20210;-86
2024/03/04 12:08:13;;;;;;;2.67;2.20;;;9.30;99.90;;;;;;6154193;23;20205;-86
2024/03/04 12:10:39;;;;;;;5.37;3.53;;;9.30;99.90;;;;;;6179044;23;20290;-86
2024/03/04 12:13:05;;;;;;;3.40;3.10;;;9.30;99.90;;;;;;6177699;23;20341;-87
2024/03/04 12:15:31;;;;;;;1.97;1.87;;;9.30;99.90;;;;;;6177954;23;20210;-88
2024/03/04 12:17:57;;;;;;;6.43;1.50;;;9.40;99.90;;;;;;6152975;23;20179;-85
2024/03/04 12:20:25;;;;;;;6.60;3.10;;;9.50;99.90;;;;;;6153522;23;20234;-87
2024/03/04 12:22:54;;;;;;;2.50;1.90;;;9.40;99.90;;;;;;6152587;23;20210;-89
2024/03/04 12:25:27;;;;;;;5.30;3.37;;;9.50;99.90;;;;;;6153241;23;20206;-87
2024/03/04 12:27:57;;;;;;;4.73;2.03;;;9.40;99.90;;;;;;6154121;23;20277;-90
2024/03/04 12:30:24;;;;;;;2.03;1.87;;;9.40;99.90;;;;;;6178079;23;20582;-89
2024/03/04 12:32:51;;;;;;;2.97;1.70;;;9.40;99.90;;;;;;6176137;23;20229;-87
2024/03/04 12:35:31;;;;;;;5.97;1.77;;;9.40;99.90;;;;;;6180205;23;20185;-86
2024/03/04 12:38:01;;;;;;;4.00;1.23;;;9.50;99.90;;;;;;6179324;23;20297;-87
2024/03/04 12:40:27;;;;;;;7.90;3.43;;;9.40;99.90;;;;;;6181158;23;20210;-86
2024/03/04 12:43:03;;;;;;;3.97;1.90;;;9.50;99.90;;;;;;6180252;23;20194;-89
2024/03/04 12:45:30;;;;;;;3.03;1.70;;;9.40;99.90;;;;;;6152963;23;20604;-87
2024/03/04 12:48:00;;;;;;;5.77;2.37;;;9.30;99.90;;;;;;6164509;23;20253;-87
2024/03/04 12:50:27;;;;;;;3.73;2.53;;;9.40;99.90;;;;;;6136215;23;20182;-85
2024/03/04 12:52:54;;;;;;;4.47;1.57;;;9.30;99.90;;;;;;6179456;23;20198;-85